sensor_id;sensor_type;location;lat;lon;timestamp;P1;durP1;ratioP1;P2;durP2;ratioP2
9124;SDS011;4597;48.730;9.114;2023-12-29T00:00:29;1.43;;;1.30;;
9124;SDS011;4597;48.730;9.114;2023-12-29T00:02:55;1.33;;;1.23;;
9124;SDS011;4597;48.730;9.114;2023-12-29T00:05:20;1.57;;;1.47;;
9124;SDS011;4597;48.730;9.114;2023-12-29T00:07:46;1.20;;;1.20;;
9124;SDS011;4597;48.730;9.114;2023-12-29T00:10:11;1.53;;;1.43;;
9124;SDS011;4597;48.730;9.114;2023-12-29T00:12:37;1.40;;;1.40;;
9124;SDS011;4597;48.730;9.114;2023-12-29T00:15:03;1.10;;;1.10;;
9124;SDS011;4597;48.730;9.114;2023-12-29T00:17:28;1.37;;;1.37;;
9124;SDS011;4597;48.730;9.114;2023-12-29T00:19:54;1.40;;;1.40;;
9124;SDS011;4597;48.730;9.114;2023-12-29T00:22:20;0.90;;;0.90;;
9124;SDS011;4597;48.730;9.114;2023-12-29T00:24:46;1.50;;;1.40;;
9124;SDS011;4597;48.730;9.114;2023-12-29T00:27:11;1.50;;;1.40;;
9124;SDS011;4597;48.730;9.114;2023-12-29T00:29:38;1.30;;;1.30;;
9124;SDS011;4597;48.730;9.114;2023-12-29T00:32:04;1.17;;;1.17;;
9124;SDS011;4597;48.730;9.114;2023-12-29T00:34:30;1.10;;;1.10;;
9124;SDS011;4597;48.730;9.114;2023-12-29T00:36:56;1.73;;;1.63;;
9124;SDS011;4597;48.730;9.114;2023-12-29T00:39:21;1.40;;;1.40;;
9124;SDS011;4597;48.730;9.114;2023-12-29T00:41:54;1.27;;;1.27;;
9124;SDS011;4597;48.730;9.114;2023-12-29T00:44:21;1.50;;;1.40;;
9124;SDS011;4597;48.730;9.114;2023-12-29T00:46:48;1.53;;;1.43;;
9124;SDS011;4597;48.730;9.114;2023-12-29T00:49:14;1.40;;;1.40;;
9124;SDS011;4597;48.730;9.114;2023-12-29T00:51:40;1.90;;;1.80;;
9124;SDS011;4597;48.730;9.114;2023-12-29T00:54:08;1.40;;;1.40;;
9124;SDS011;4597;48.730;9.114;2023-12-29T00:56:33;2.00;;;1.80;;
9124;SDS011;4597;48.730;9.114;2023-12-29T00:58:59;1.73;;;1.63;;
9124;SDS011;4597;48.730;9.114;2023-12-29T01:01:24;1.70;;;1.60;;
9124;SDS011;4597;48.730;9.114;2023-12-29T01:03:50;1.70;;;1.60;;
9124;SDS011;4597;48.730;9.114;2023-12-29T01:06:19;1.80;;;1.70;;
9124;SDS011;4597;48.730;9.114;2023-12-29T01:08:45;1.87;;;1.77;;
9124;SDS011;4597;48.730;9.114;2023-12-29T01:11:10;1.90;;;1.80;;
9124;SDS011;4597;48.730;9.114;2023-12-29T01:13:36;1.90;;;1.80;;
9124;SDS011;4597;48.730;9.114;2023-12-29T01:16:01;1.87;;;1.77;;
9124;SDS011;4597;48.730;9.114;2023-12-29T01:18:27;1.73;;;1.63;;
9124;SDS011;4597;48.730;9.114;2023-12-29T01:20:53;2.00;;;1.90;;
9124;SDS011;4597;48.730;9.114;2023-12-29T01:23:18;1.93;;;1.77;;
9124;SDS011;4597;48.730;9.114;2023-12-29T01:25:44;1.80;;;1.70;;
9124;SDS011;4597;48.730;9.114;2023-12-29T01:28:09;1.57;;;1.50;;
9124;SDS011;4597;48.730;9.114;2023-12-29T01:30:35;1.77;;;1.67;;
9124;SDS011;4597;48.730;9.114;2023-12-29T01:33:01;1.50;;;1.50;;
9124;SDS011;4597;48.730;9.114;2023-12-29T01:35:26;2.03;;;1.93;;
9124;SDS011;4597;48.730;9.114;2023-12-29T01:37:51;1.97;;;1.87;;
9124;SDS011;4597;48.730;9.114;2023-12-29T01:40:17;1.30;;;1.30;;
9124;SDS011;4597;48.730;9.114;2023-12-29T01:42:43;1.80;;;1.70;;
9124;SDS011;4597;48.730;9.114;2023-12-29T01:45:13;1.93;;;1.83;;
9124;SDS011;4597;48.730;9.114;2023-12-29T01:47:47;1.73;;;1.60;;
9124;SDS011;4597;48.730;9.114;2023-12-29T01:50:13;2.53;;;1.67;;
9124;SDS011;4597;48.730;9.114;2023-12-29T01:52:40;1.60;;;1.50;;
9124;SDS011;4597;48.730;9.114;2023-12-29T01:55:09;1.80;;;1.70;;
9124;SDS011;4597;48.730;9.114;2023-12-29T01:57:40;1.80;;;1.70;;
9124;SDS011;4597;48.730;9.114;2023-12-29T02:00:06;1.50;;;1.50;;
9124;SDS011;4597;48.730;9.114;2023-12-29T02:02:32;1.97;;;1.87;;
9124;SDS011;4597;48.730;9.114;2023-12-29T02:04:58;1.77;;;1.67;;
9124;SDS011;4597;48.730;9.114;2023-12-29T02:07:25;2.10;;;2.00;;
9124;SDS011;4597;48.730;9.114;2023-12-29T02:09:55;2.00;;;1.80;;
9124;SDS011;4597;48.730;9.114;2023-12-29T02:12:22;1.80;;;1.70;;
9124;SDS011;4597;48.730;9.114;2023-12-29T02:14:47;1.60;;;1.57;;
9124;SDS011;4597;48.730;9.114;2023-12-29T02:17:23;1.60;;;1.50;;
9124;SDS011;4597;48.730;9.114;2023-12-29T02:19:53;1.93;;;1.77;;
9124;SDS011;4597;48.730;9.114;2023-12-29T02:22:18;2.00;;;1.90;;
9124;SDS011;4597;48.730;9.114;2023-12-29T02:24:47;1.80;;;1.70;;
9124;SDS011;4597;48.730;9.114;2023-12-29T02:30:08;1.73;;;1.63;;
9124;SDS011;4597;48.730;9.114;2023-12-29T02:32:53;1.67;;;1.50;;
9124;SDS011;4597;48.730;9.114;2023-12-29T02:35:23;2.07;;;1.97;;
9124;SDS011;4597;48.730;9.114;2023-12-29T02:37:50;1.47;;;1.43;;
9124;SDS011;4597;48.730;9.114;2023-12-29T02:40:17;1.80;;;1.70;;
9124;SDS011;4597;48.730;9.114;2023-12-29T02:42:46;1.63;;;1.53;;
9124;SDS011;4597;48.730;9.114;2023-12-29T02:45:12;1.67;;;1.57;;
9124;SDS011;4597;48.730;9.114;2023-12-29T02:47:38;1.93;;;1.83;;
9124;SDS011;4597;48.730;9.114;2023-12-29T02:50:04;2.23;;;2.00;;
9124;SDS011;4597;48.730;9.114;2023-12-29T02:52:30;2.07;;;1.90;;
9124;SDS011;4597;48.730;9.114;2023-12-29T02:54:55;2.33;;;2.17;;
9124;SDS011;4597;48.730;9.114;2023-12-29T02:57:21;1.53;;;1.43;;
9124;SDS011;4597;48.730;9.114;2023-12-29T02:59:46;2.13;;;2.03;;
9124;SDS011;4597;48.730;9.114;2023-12-29T03:02:12;1.90;;;1.80;;
9124;SDS011;4597;48.730;9.114;2023-12-29T03:04:37;1.80;;;1.70;;
9124;SDS011;4597;48.730;9.114;2023-12-29T03:07:03;2.10;;;2.00;;
9124;SDS011;4597;48.730;9.114;2023-12-29T03:09:28;1.97;;;1.87;;
9124;SDS011;4597;48.730;9.114;2023-12-29T03:11:54;2.30;;;1.87;;
9124;SDS011;4597;48.730;9.114;2023-12-29T03:14:19;2.20;;;2.00;;
9124;SDS011;4597;48.730;9.114;2023-12-29T03:16:45;2.07;;;1.93;;
9124;SDS011;4597;48.730;9.114;2023-12-29T03:19:10;2.03;;;1.83;;
9124;SDS011;4597;48.730;9.114;2023-12-29T03:21:36;1.90;;;1.80;;
9124;SDS011;4597;48.730;9.114;2023-12-29T03:24:01;2.40;;;2.10;;
9124;SDS011;4597;48.730;9.114;2023-12-29T03:26:27;1.70;;;1.60;;
9124;SDS011;4597;48.730;9.114;2023-12-29T03:28:53;2.03;;;1.93;;
9124;SDS011;4597;48.730;9.114;2023-12-29T03:31:20;2.30;;;2.10;;
9124;SDS011;4597;48.730;9.114;2023-12-29T03:33:45;1.90;;;1.80;;
9124;SDS011;4597;48.730;9.114;2023-12-29T03:36:11;2.20;;;1.80;;
9124;SDS011;4597;48.730;9.114;2023-12-29T03:38:37;1.90;;;1.80;;
9124;SDS011;4597;48.730;9.114;2023-12-29T03:41:03;2.10;;;1.90;;
9124;SDS011;4597;48.730;9.114;2023-12-29T03:43:29;1.93;;;1.80;;
9124;SDS011;4597;48.730;9.114;2023-12-29T03:45:54;2.00;;;1.90;;
9124;SDS011;4597;48.730;9.114;2023-12-29T03:48:19;2.57;;;2.07;;
9124;SDS011;4597;48.730;9.114;2023-12-29T03:50:45;1.90;;;1.80;;
9124;SDS011;4597;48.730;9.114;2023-12-29T03:53:11;2.00;;;1.90;;
9124;SDS011;4597;48.730;9.114;2023-12-29T03:55:36;2.03;;;1.93;;
9124;SDS011;4597;48.730;9.114;2023-12-29T03:58:02;1.80;;;1.70;;
9124;SDS011;4597;48.730;9.114;2023-12-29T04:00:28;1.80;;;1.70;;
9124;SDS011;4597;48.730;9.114;2023-12-29T04:02:54;2.40;;;2.10;;
9124;SDS011;4597;48.730;9.114;2023-12-29T04:05:19;2.23;;;2.10;;
9124;SDS011;4597;48.730;9.114;2023-12-29T04:07:45;2.17;;;2.00;;
9124;SDS011;4597;48.730;9.114;2023-12-29T04:10:10;1.73;;;1.63;;
9124;SDS011;4597;48.730;9.114;2023-12-29T04:12:36;1.90;;;1.80;;
9124;SDS011;4597;48.730;9.114;2023-12-29T04:15:03;1.80;;;1.70;;
9124;SDS011;4597;48.730;9.114;2023-12-29T04:17:29;1.70;;;1.63;;
9124;SDS011;4597;48.730;9.114;2023-12-29T04:19:54;2.03;;;1.93;;
9124;SDS011;4597;48.730;9.114;2023-12-29T04:22:20;1.80;;;1.70;;
9124;SDS011;4597;48.730;9.114;2023-12-29T04:24:46;2.17;;;1.93;;
9124;SDS011;4597;48.730;9.114;2023-12-29T04:27:11;2.67;;;2.30;;
9124;SDS011;4597;48.730;9.114;2023-12-29T04:29:38;2.10;;;1.90;;
9124;SDS011;4597;48.730;9.114;2023-12-29T04:32:04;1.60;;;1.57;;
9124;SDS011;4597;48.730;9.114;2023-12-29T04:34:29;1.60;;;1.50;;
9124;SDS011;4597;48.730;9.114;2023-12-29T04:36:55;2.03;;;1.93;;
9124;SDS011;4597;48.730;9.114;2023-12-29T04:39:20;1.63;;;1.53;;
9124;SDS011;4597;48.730;9.114;2023-12-29T04:41:46;1.70;;;1.60;;
9124;SDS011;4597;48.730;9.114;2023-12-29T04:44:11;1.80;;;1.70;;
9124;SDS011;4597;48.730;9.114;2023-12-29T04:46:37;2.10;;;1.80;;
9124;SDS011;4597;48.730;9.114;2023-12-29T04:49:02;1.50;;;1.40;;
9124;SDS011;4597;48.730;9.114;2023-12-29T04:51:28;1.57;;;1.47;;
9124;SDS011;4597;48.730;9.114;2023-12-29T04:53:53;1.90;;;1.80;;
9124;SDS011;4597;48.730;9.114;2023-12-29T04:56:19;1.50;;;1.50;;
9124;SDS011;4597;48.730;9.114;2023-12-29T04:58:44;1.53;;;1.43;;
9124;SDS011;4597;48.730;9.114;2023-12-29T05:01:10;1.53;;;1.43;;
9124;SDS011;4597;48.730;9.114;2023-12-29T05:03:35;2.00;;;1.90;;
9124;SDS011;4597;48.730;9.114;2023-12-29T05:06:01;1.77;;;1.67;;
9124;SDS011;4597;48.730;9.114;2023-12-29T05:08:26;1.40;;;1.37;;
9124;SDS011;4597;48.730;9.114;2023-12-29T05:10:52;1.90;;;1.80;;
9124;SDS011;4597;48.730;9.114;2023-12-29T05:13:18;1.73;;;1.63;;
9124;SDS011;4597;48.730;9.114;2023-12-29T05:15:43;2.40;;;1.80;;
9124;SDS011;4597;48.730;9.114;2023-12-29T05:18:09;1.40;;;1.40;;
9124;SDS011;4597;48.730;9.114;2023-12-29T05:20:34;1.70;;;1.60;;
9124;SDS011;4597;48.730;9.114;2023-12-29T05:23:00;2.80;;;1.67;;
9124;SDS011;4597;48.730;9.114;2023-12-29T05:25:25;2.20;;;2.10;;
9124;SDS011;4597;48.730;9.114;2023-12-29T05:27:51;1.87;;;1.70;;
9124;SDS011;4597;48.730;9.114;2023-12-29T05:30:16;1.30;;;1.30;;
9124;SDS011;4597;48.730;9.114;2023-12-29T05:32:42;1.50;;;1.50;;
9124;SDS011;4597;48.730;9.114;2023-12-29T05:35:08;1.40;;;1.40;;
9124;SDS011;4597;48.730;9.114;2023-12-29T05:37:33;1.43;;;1.33;;
9124;SDS011;4597;48.730;9.114;2023-12-29T05:39:59;1.70;;;1.60;;
9124;SDS011;4597;48.730;9.114;2023-12-29T05:42:24;1.23;;;1.20;;
9124;SDS011;4597;48.730;9.114;2023-12-29T05:44:50;1.60;;;1.60;;
9124;SDS011;4597;48.730;9.114;2023-12-29T05:47:18;1.43;;;1.43;;
9124;SDS011;4597;48.730;9.114;2023-12-29T05:49:43;1.70;;;1.60;;
9124;SDS011;4597;48.730;9.114;2023-12-29T05:52:09;1.50;;;1.40;;
9124;SDS011;4597;48.730;9.114;2023-12-29T05:54:35;1.47;;;1.47;;
9124;SDS011;4597;48.730;9.114;2023-12-29T05:57:00;0.97;;;0.97;;
9124;SDS011;4597;48.730;9.114;2023-12-29T05:59:26;1.20;;;1.20;;
9124;SDS011;4597;48.730;9.114;2023-12-29T06:01:52;1.50;;;1.40;;
9124;SDS011;4597;48.730;9.114;2023-12-29T06:04:18;1.43;;;1.33;;
9124;SDS011;4597;48.730;9.114;2023-12-29T06:06:43;1.30;;;1.20;;
9124;SDS011;4597;48.730;9.114;2023-12-29T06:09:09;1.43;;;1.33;;
9124;SDS011;4597;48.730;9.114;2023-12-29T06:11:35;1.80;;;1.70;;
9124;SDS011;4597;48.730;9.114;2023-12-29T06:14:01;1.50;;;1.40;;
9124;SDS011;4597;48.730;9.114;2023-12-29T06:16:26;1.47;;;1.37;;
9124;SDS011;4597;48.730;9.114;2023-12-29T06:18:52;1.30;;;1.30;;
9124;SDS011;4597;48.730;9.114;2023-12-29T06:21:18;1.40;;;1.40;;
9124;SDS011;4597;48.730;9.114;2023-12-29T06:23:44;1.50;;;1.40;;
9124;SDS011;4597;48.730;9.114;2023-12-29T06:26:13;1.20;;;1.20;;
9124;SDS011;4597;48.730;9.114;2023-12-29T06:28:40;1.40;;;1.30;;
9124;SDS011;4597;48.730;9.114;2023-12-29T06:31:05;2.17;;;1.40;;
9124;SDS011;4597;48.730;9.114;2023-12-29T06:33:31;1.43;;;1.43;;
9124;SDS011;4597;48.730;9.114;2023-12-29T06:35:57;1.43;;;1.40;;
9124;SDS011;4597;48.730;9.114;2023-12-29T06:38:22;1.83;;;1.73;;
9124;SDS011;4597;48.730;9.114;2023-12-29T06:40:48;1.50;;;1.50;;
9124;SDS011;4597;48.730;9.114;2023-12-29T06:43:14;1.57;;;1.47;;
9124;SDS011;4597;48.730;9.114;2023-12-29T06:45:39;1.50;;;1.40;;
9124;SDS011;4597;48.730;9.114;2023-12-29T06:48:05;1.47;;;1.47;;
9124;SDS011;4597;48.730;9.114;2023-12-29T06:50:30;1.97;;;1.87;;
9124;SDS011;4597;48.730;9.114;2023-12-29T06:52:56;2.00;;;1.90;;
9124;SDS011;4597;48.730;9.114;2023-12-29T06:55:21;2.27;;;2.07;;
9124;SDS011;4597;48.730;9.114;2023-12-29T06:57:47;1.70;;;1.57;;
9124;SDS011;4597;48.730;9.114;2023-12-29T07:00:12;1.70;;;1.60;;
9124;SDS011;4597;48.730;9.114;2023-12-29T07:02:38;1.40;;;1.40;;
9124;SDS011;4597;48.730;9.114;2023-12-29T07:05:05;2.17;;;1.70;;
9124;SDS011;4597;48.730;9.114;2023-12-29T07:07:31;2.03;;;1.70;;
9124;SDS011;4597;48.730;9.114;2023-12-29T07:09:57;1.90;;;1.60;;
9124;SDS011;4597;48.730;9.114;2023-12-29T07:12:22;2.40;;;2.20;;
9124;SDS011;4597;48.730;9.114;2023-12-29T07:14:48;1.70;;;1.60;;
9124;SDS011;4597;48.730;9.114;2023-12-29T07:17:13;1.10;;;1.10;;
9124;SDS011;4597;48.730;9.114;2023-12-29T07:19:39;1.33;;;1.30;;
9124;SDS011;4597;48.730;9.114;2023-12-29T07:22:04;1.53;;;1.40;;
9124;SDS011;4597;48.730;9.114;2023-12-29T07:24:34;1.17;;;1.17;;
9124;SDS011;4597;48.730;9.114;2023-12-29T07:27:00;1.80;;;1.70;;
9124;SDS011;4597;48.730;9.114;2023-12-29T07:29:26;1.37;;;1.37;;
9124;SDS011;4597;48.730;9.114;2023-12-29T07:31:52;1.40;;;1.40;;
9124;SDS011;4597;48.730;9.114;2023-12-29T07:34:17;3.23;;;1.37;;
9124;SDS011;4597;48.730;9.114;2023-12-29T07:36:43;1.60;;;1.50;;
9124;SDS011;4597;48.730;9.114;2023-12-29T07:39:09;1.77;;;1.67;;
9124;SDS011;4597;48.730;9.114;2023-12-29T07:41:38;1.60;;;1.60;;
9124;SDS011;4597;48.730;9.114;2023-12-29T07:44:05;2.70;;;1.63;;
9124;SDS011;4597;48.730;9.114;2023-12-29T07:46:31;2.00;;;1.90;;
9124;SDS011;4597;48.730;9.114;2023-12-29T07:48:57;1.57;;;1.40;;
9124;SDS011;4597;48.730;9.114;2023-12-29T07:51:22;1.90;;;1.60;;
9124;SDS011;4597;48.730;9.114;2023-12-29T07:53:48;1.53;;;1.53;;
9124;SDS011;4597;48.730;9.114;2023-12-29T07:56:14;2.30;;;1.20;;
9124;SDS011;4597;48.730;9.114;2023-12-29T07:58:39;1.47;;;1.37;;
9124;SDS011;4597;48.730;9.114;2023-12-29T08:01:05;1.80;;;1.70;;
9124;SDS011;4597;48.730;9.114;2023-12-29T08:03:30;1.30;;;1.30;;
9124;SDS011;4597;48.730;9.114;2023-12-29T08:05:56;1.40;;;1.30;;
9124;SDS011;4597;48.730;9.114;2023-12-29T08:08:21;1.60;;;1.50;;
9124;SDS011;4597;48.730;9.114;2023-12-29T08:10:47;1.27;;;1.27;;
9124;SDS011;4597;48.730;9.114;2023-12-29T08:13:12;1.40;;;1.30;;
9124;SDS011;4597;48.730;9.114;2023-12-29T08:15:38;1.53;;;1.47;;
9124;SDS011;4597;48.730;9.114;2023-12-29T08:18:04;1.50;;;1.40;;
9124;SDS011;4597;48.730;9.114;2023-12-29T08:20:30;1.20;;;1.20;;
9124;SDS011;4597;48.730;9.114;2023-12-29T08:22:55;1.33;;;1.30;;
9124;SDS011;4597;48.730;9.114;2023-12-29T08:25:22;1.30;;;1.30;;
9124;SDS011;4597;48.730;9.114;2023-12-29T08:27:47;1.33;;;1.33;;
9124;SDS011;4597;48.730;9.114;2023-12-29T08:30:13;1.17;;;1.17;;
9124;SDS011;4597;48.730;9.114;2023-12-29T08:32:39;1.20;;;1.20;;
9124;SDS011;4597;48.730;9.114;2023-12-29T08:35:04;0.90;;;0.90;;
9124;SDS011;4597;48.730;9.114;2023-12-29T08:37:31;1.13;;;1.13;;
9124;SDS011;4597;48.730;9.114;2023-12-29T08:39:58;1.43;;;1.43;;
9124;SDS011;4597;48.730;9.114;2023-12-29T08:42:24;1.43;;;1.37;;
9124;SDS011;4597;48.730;9.114;2023-12-29T08:44:49;1.80;;;1.70;;
9124;SDS011;4597;48.730;9.114;2023-12-29T08:47:15;1.80;;;1.70;;
9124;SDS011;4597;48.730;9.114;2023-12-29T08:49:40;1.00;;;1.00;;
9124;SDS011;4597;48.730;9.114;2023-12-29T08:52:06;1.20;;;1.20;;
9124;SDS011;4597;48.730;9.114;2023-12-29T08:54:33;1.67;;;1.17;;
9124;SDS011;4597;48.730;9.114;2023-12-29T08:56:59;1.30;;;1.30;;
9124;SDS011;4597;48.730;9.114;2023-12-29T08:59:24;1.10;;;1.10;;
9124;SDS011;4597;48.730;9.114;2023-12-29T09:01:50;1.60;;;1.60;;
9124;SDS011;4597;48.730;9.114;2023-12-29T09:04:15;1.63;;;1.40;;
9124;SDS011;4597;48.730;9.114;2023-12-29T09:06:41;1.57;;;1.43;;
9124;SDS011;4597;48.730;9.114;2023-12-29T09:09:07;1.20;;;1.20;;
9124;SDS011;4597;48.730;9.114;2023-12-29T09:11:37;1.33;;;1.23;;
9124;SDS011;4597;48.730;9.114;2023-12-29T09:14:03;1.50;;;1.40;;
9124;SDS011;4597;48.730;9.114;2023-12-29T09:16:29;1.10;;;1.10;;
9124;SDS011;4597;48.730;9.114;2023-12-29T09:18:55;1.27;;;1.23;;
9124;SDS011;4597;48.730;9.114;2023-12-29T09:21:20;0.97;;;0.97;;
9124;SDS011;4597;48.730;9.114;2023-12-29T09:23:46;0.80;;;0.80;;
9124;SDS011;4597;48.730;9.114;2023-12-29T09:26:12;1.00;;;1.00;;
9124;SDS011;4597;48.730;9.114;2023-12-29T09:28:37;1.40;;;1.30;;
9124;SDS011;4597;48.730;9.114;2023-12-29T09:31:09;1.67;;;1.57;;
9124;SDS011;4597;48.730;9.114;2023-12-29T09:33:35;1.93;;;1.83;;
9124;SDS011;4597;48.730;9.114;2023-12-29T09:36:01;1.53;;;1.43;;
9124;SDS011;4597;48.730;9.114;2023-12-29T09:38:27;1.33;;;1.33;;
9124;SDS011;4597;48.730;9.114;2023-12-29T09:40:53;1.10;;;1.10;;
9124;SDS011;4597;48.730;9.114;2023-12-29T09:43:24;1.00;;;1.00;;
9124;SDS011;4597;48.730;9.114;2023-12-29T09:45:50;1.20;;;1.20;;
9124;SDS011;4597;48.730;9.114;2023-12-29T09:48:17;0.87;;;0.87;;
9124;SDS011;4597;48.730;9.114;2023-12-29T09:50:47;0.80;;;0.80;;
9124;SDS011;4597;48.730;9.114;2023-12-29T09:53:15;1.27;;;0.90;;
9124;SDS011;4597;48.730;9.114;2023-12-29T09:55:42;1.00;;;1.00;;
9124;SDS011;4597;48.730;9.114;2023-12-29T09:58:08;0.80;;;0.80;;
9124;SDS011;4597;48.730;9.114;2023-12-29T10:00:34;0.80;;;0.80;;
9124;SDS011;4597;48.730;9.114;2023-12-29T10:03:00;1.00;;;1.00;;
9124;SDS011;4597;48.730;9.114;2023-12-29T10:05:26;0.90;;;0.90;;
9124;SDS011;4597;48.730;9.114;2023-12-29T10:07:52;0.87;;;0.87;;
9124;SDS011;4597;48.730;9.114;2023-12-29T10:10:18;1.00;;;1.00;;
9124;SDS011;4597;48.730;9.114;2023-12-29T10:12:47;0.90;;;0.90;;
9124;SDS011;4597;48.730;9.114;2023-12-29T10:15:56;1.00;;;1.00;;
9124;SDS011;4597;48.730;9.114;2023-12-29T10:18:28;0.73;;;0.73;;
9124;SDS011;4597;48.730;9.114;2023-12-29T10:21:15;0.67;;;0.67;;
9124;SDS011;4597;48.730;9.114;2023-12-29T10:26:21;0.90;;;0.90;;
9124;SDS011;4597;48.730;9.114;2023-12-29T10:28:48;0.70;;;0.70;;
9124;SDS011;4597;48.730;9.114;2023-12-29T10:31:14;1.37;;;0.80;;
9124;SDS011;4597;48.730;9.114;2023-12-29T10:33:41;1.13;;;0.90;;
9124;SDS011;4597;48.730;9.114;2023-12-29T10:36:07;0.70;;;0.70;;
9124;SDS011;4597;48.730;9.114;2023-12-29T10:38:34;0.70;;;0.70;;
9124;SDS011;4597;48.730;9.114;2023-12-29T10:41:13;0.93;;;0.93;;
9124;SDS011;4597;48.730;9.114;2023-12-29T10:43:43;0.70;;;0.70;;
9124;SDS011;4597;48.730;9.114;2023-12-29T10:46:17;0.93;;;0.93;;
9124;SDS011;4597;48.730;9.114;2023-12-29T10:48:42;1.00;;;1.00;;
9124;SDS011;4597;48.730;9.114;2023-12-29T10:51:08;1.30;;;1.30;;
9124;SDS011;4597;48.730;9.114;2023-12-29T10:53:35;1.23;;;1.23;;
9124;SDS011;4597;48.730;9.114;2023-12-29T10:56:01;1.07;;;1.00;;
9124;SDS011;4597;48.730;9.114;2023-12-29T10:58:29;0.70;;;0.70;;
9124;SDS011;4597;48.730;9.114;2023-12-29T11:00:57;0.80;;;0.80;;
9124;SDS011;4597;48.730;9.114;2023-12-29T11:03:24;1.00;;;1.00;;
9124;SDS011;4597;48.730;9.114;2023-12-29T11:05:50;1.30;;;1.30;;
9124;SDS011;4597;48.730;9.114;2023-12-29T11:08:23;1.10;;;1.10;;
9124;SDS011;4597;48.730;9.114;2023-12-29T11:10:49;1.00;;;1.00;;
9124;SDS011;4597;48.730;9.114;2023-12-29T11:13:15;0.63;;;0.63;;
9124;SDS011;4597;48.730;9.114;2023-12-29T11:15:44;0.80;;;0.80;;
9124;SDS011;4597;48.730;9.114;2023-12-29T11:18:16;0.50;;;0.50;;
9124;SDS011;4597;48.730;9.114;2023-12-29T11:20:43;0.60;;;0.60;;
9124;SDS011;4597;48.730;9.114;2023-12-29T11:23:10;0.57;;;0.57;;
9124;SDS011;4597;48.730;9.114;2023-12-29T11:25:39;0.50;;;0.50;;
9124;SDS011;4597;48.730;9.114;2023-12-29T11:28:08;0.70;;;0.70;;
9124;SDS011;4597;48.730;9.114;2023-12-29T11:30:37;0.53;;;0.53;;
9124;SDS011;4597;48.730;9.114;2023-12-29T11:33:03;0.50;;;0.50;;
9124;SDS011;4597;48.730;9.114;2023-12-29T11:35:43;0.50;;;0.50;;
9124;SDS011;4597;48.730;9.114;2023-12-29T11:38:32;0.70;;;0.70;;
9124;SDS011;4597;48.730;9.114;2023-12-29T11:43:34;0.67;;;0.67;;
9124;SDS011;4597;48.730;9.114;2023-12-29T11:46:00;0.70;;;0.70;;
9124;SDS011;4597;48.730;9.114;2023-12-29T11:51:29;0.60;;;0.60;;
9124;SDS011;4597;48.730;9.114;2023-12-29T11:54:05;0.83;;;0.83;;
9124;SDS011;4597;48.730;9.114;2023-12-29T11:56:36;0.60;;;0.60;;
9124;SDS011;4597;48.730;9.114;2023-12-29T11:59:13;0.70;;;0.70;;
9124;SDS011;4597;48.730;9.114;2023-12-29T12:01:39;0.70;;;0.70;;
9124;SDS011;4597;48.730;9.114;2023-12-29T12:04:33;0.70;;;0.70;;
9124;SDS011;4597;48.730;9.114;2023-12-29T12:09:38;0.50;;;0.50;;
9124;SDS011;4597;48.730;9.114;2023-12-29T12:12:04;0.67;;;0.67;;
9124;SDS011;4597;48.730;9.114;2023-12-29T12:14:43;0.87;;;0.87;;
9124;SDS011;4597;48.730;9.114;2023-12-29T12:17:09;0.60;;;0.60;;
9124;SDS011;4597;48.730;9.114;2023-12-29T12:19:35;0.60;;;0.60;;
9124;SDS011;4597;48.730;9.114;2023-12-29T12:22:01;0.50;;;0.50;;
9124;SDS011;4597;48.730;9.114;2023-12-29T12:24:27;0.67;;;0.67;;
9124;SDS011;4597;48.730;9.114;2023-12-29T12:26:56;0.70;;;0.70;;
9124;SDS011;4597;48.730;9.114;2023-12-29T12:29:21;1.00;;;0.90;;
9124;SDS011;4597;48.730;9.114;2023-12-29T12:31:54;0.83;;;0.80;;
9124;SDS011;4597;48.730;9.114;2023-12-29T12:34:22;0.63;;;0.63;;
9124;SDS011;4597;48.730;9.114;2023-12-29T12:36:51;0.67;;;0.67;;
9124;SDS011;4597;48.730;9.114;2023-12-29T12:39:17;0.80;;;0.80;;
9124;SDS011;4597;48.730;9.114;2023-12-29T12:41:44;0.80;;;0.80;;
9124;SDS011;4597;48.730;9.114;2023-12-29T12:44:10;0.73;;;0.73;;
9124;SDS011;4597;48.730;9.114;2023-12-29T12:46:39;0.60;;;0.60;;
9124;SDS011;4597;48.730;9.114;2023-12-29T12:49:11;0.80;;;0.80;;
9124;SDS011;4597;48.730;9.114;2023-12-29T12:51:37;0.70;;;0.70;;
9124;SDS011;4597;48.730;9.114;2023-12-29T12:54:03;0.90;;;0.90;;
9124;SDS011;4597;48.730;9.114;2023-12-29T12:56:29;0.80;;;0.80;;
9124;SDS011;4597;48.730;9.114;2023-12-29T12:58:59;0.70;;;0.70;;
9124;SDS011;4597;48.730;9.114;2023-12-29T13:01:27;0.80;;;0.80;;
9124;SDS011;4597;48.730;9.114;2023-12-29T13:03:54;1.00;;;1.00;;
9124;SDS011;4597;48.730;9.114;2023-12-29T13:06:20;1.03;;;1.03;;
9124;SDS011;4597;48.730;9.114;2023-12-29T13:08:48;0.77;;;0.77;;
9124;SDS011;4597;48.730;9.114;2023-12-29T13:11:18;0.77;;;0.77;;
9124;SDS011;4597;48.730;9.114;2023-12-29T13:13:46;0.80;;;0.80;;
9124;SDS011;4597;48.730;9.114;2023-12-29T13:16:12;1.20;;;0.80;;
9124;SDS011;4597;48.730;9.114;2023-12-29T13:18:41;0.70;;;0.70;;
9124;SDS011;4597;48.730;9.114;2023-12-29T13:21:06;0.80;;;0.80;;
9124;SDS011;4597;48.730;9.114;2023-12-29T13:23:33;0.90;;;0.90;;
9124;SDS011;4597;48.730;9.114;2023-12-29T13:25:59;0.80;;;0.80;;
9124;SDS011;4597;48.730;9.114;2023-12-29T13:28:36;1.20;;;1.20;;
9124;SDS011;4597;48.730;9.114;2023-12-29T13:31:02;0.97;;;0.97;;
9124;SDS011;4597;48.730;9.114;2023-12-29T13:33:43;0.87;;;0.87;;
9124;SDS011;4597;48.730;9.114;2023-12-29T13:38:53;0.60;;;0.60;;
9124;SDS011;4597;48.730;9.114;2023-12-29T13:41:22;0.83;;;0.83;;
9124;SDS011;4597;48.730;9.114;2023-12-29T13:43:50;1.20;;;1.10;;
9124;SDS011;4597;48.730;9.114;2023-12-29T13:46:17;0.70;;;0.70;;
9124;SDS011;4597;48.730;9.114;2023-12-29T13:48:43;0.90;;;0.90;;
9124;SDS011;4597;48.730;9.114;2023-12-29T13:51:11;0.97;;;0.97;;
9124;SDS011;4597;48.730;9.114;2023-12-29T13:53:37;0.80;;;0.80;;
9124;SDS011;4597;48.730;9.114;2023-12-29T13:56:07;0.70;;;0.70;;
9124;SDS011;4597;48.730;9.114;2023-12-29T13:58:33;1.00;;;1.00;;
9124;SDS011;4597;48.730;9.114;2023-12-29T14:00:59;1.07;;;1.07;;
9124;SDS011;4597;48.730;9.114;2023-12-29T14:03:34;0.73;;;0.73;;
9124;SDS011;4597;48.730;9.114;2023-12-29T14:06:08;0.80;;;0.80;;
9124;SDS011;4597;48.730;9.114;2023-12-29T14:08:46;1.00;;;1.00;;
9124;SDS011;4597;48.730;9.114;2023-12-29T14:11:12;2.40;;;2.20;;
9124;SDS011;4597;48.730;9.114;2023-12-29T14:13:41;2.00;;;1.90;;
9124;SDS011;4597;48.730;9.114;2023-12-29T14:16:07;1.60;;;1.50;;
9124;SDS011;4597;48.730;9.114;2023-12-29T14:20:58;1.63;;;1.53;;
9124;SDS011;4597;48.730;9.114;2023-12-29T14:23:24;1.57;;;1.47;;
9124;SDS011;4597;48.730;9.114;2023-12-29T14:25:50;1.50;;;1.50;;
9124;SDS011;4597;48.730;9.114;2023-12-29T14:28:17;1.10;;;1.10;;
9124;SDS011;4597;48.730;9.114;2023-12-29T14:30:44;1.57;;;1.47;;
9124;SDS011;4597;48.730;9.114;2023-12-29T14:33:10;0.77;;;0.77;;
9124;SDS011;4597;48.730;9.114;2023-12-29T14:35:35;0.90;;;0.90;;
9124;SDS011;4597;48.730;9.114;2023-12-29T14:38:01;0.80;;;0.80;;
9124;SDS011;4597;48.730;9.114;2023-12-29T14:40:27;0.90;;;0.90;;
9124;SDS011;4597;48.730;9.114;2023-12-29T14:42:53;0.77;;;0.77;;
9124;SDS011;4597;48.730;9.114;2023-12-29T14:45:18;0.90;;;0.90;;
9124;SDS011;4597;48.730;9.114;2023-12-29T14:47:44;1.30;;;1.30;;
9124;SDS011;4597;48.730;9.114;2023-12-29T14:50:14;1.50;;;0.70;;
9124;SDS011;4597;48.730;9.114;2023-12-29T14:52:39;0.90;;;0.90;;
9124;SDS011;4597;48.730;9.114;2023-12-29T14:55:05;0.90;;;0.90;;
9124;SDS011;4597;48.730;9.114;2023-12-29T14:57:31;0.70;;;0.70;;
9124;SDS011;4597;48.730;9.114;2023-12-29T14:59:56;0.90;;;0.90;;
9124;SDS011;4597;48.730;9.114;2023-12-29T15:02:22;1.20;;;1.20;;
9124;SDS011;4597;48.730;9.114;2023-12-29T15:04:47;1.10;;;1.10;;
9124;SDS011;4597;48.730;9.114;2023-12-29T15:07:16;1.03;;;1.00;;
9124;SDS011;4597;48.730;9.114;2023-12-29T15:09:43;1.10;;;1.10;;
9124;SDS011;4597;48.730;9.114;2023-12-29T15:12:08;3.47;;;1.03;;
9124;SDS011;4597;48.730;9.114;2023-12-29T15:14:34;0.90;;;0.90;;
9124;SDS011;4597;48.730;9.114;2023-12-29T15:16:59;0.83;;;0.83;;
9124;SDS011;4597;48.730;9.114;2023-12-29T15:19:25;0.90;;;0.90;;
9124;SDS011;4597;48.730;9.114;2023-12-29T15:21:50;0.70;;;0.70;;
9124;SDS011;4597;48.730;9.114;2023-12-29T15:24:18;1.00;;;1.00;;
9124;SDS011;4597;48.730;9.114;2023-12-29T15:26:45;0.90;;;0.90;;
9124;SDS011;4597;48.730;9.114;2023-12-29T15:29:10;1.13;;;1.03;;
9124;SDS011;4597;48.730;9.114;2023-12-29T15:31:36;1.00;;;1.00;;